sensor_id;sensor_type;location;lat;lon;timestamp;P1;durP1;ratioP1;P2;durP2;ratioP2
45970;SDS011;31681;48.982;8.394;2023-06-24T00:02:10;9.35;;;6.10;;
45970;SDS011;31681;48.982;8.394;2023-06-24T00:04:36;11.40;;;6.63;;
45970;SDS011;31681;48.982;8.394;2023-06-24T00:07:07;8.70;;;6.40;;
45970;SDS011;31681;48.982;8.394;2023-06-24T00:09:34;8.25;;;6.50;;
45970;SDS011;31681;48.982;8.394;2023-06-24T00:11:59;6.22;;;5.55;;
45970;SDS011;31681;48.982;8.394;2023-06-24T00:14:27;9.52;;;6.03;;
45970;SDS011;31681;48.982;8.394;2023-06-24T00:16:53;7.63;;;6.13;;
45970;SDS011;31681;48.982;8.394;2023-06-24T00:19:20;8.98;;;5.63;;
45970;SDS011;31681;48.982;8.394;2023-06-24T00:21:45;6.78;;;6.05;;
45970;SDS011;31681;48.982;8.394;2023-06-24T00:24:11;6.05;;;5.40;;
45970;SDS011;31681;48.982;8.394;2023-06-24T00:26:38;7.85;;;6.38;;
45970;SDS011;31681;48.982;8.394;2023-06-24T00:29:04;8.77;;;6.35;;
45970;SDS011;31681;48.982;8.394;2023-06-24T00:31:29;8.07;;;5.90;;
45970;SDS011;31681;48.982;8.394;2023-06-24T00:33:57;8.23;;;5.78;;
45970;SDS011;31681;48.982;8.394;2023-06-24T00:36:22;12.57;;;6.47;;
45970;SDS011;31681;48.982;8.394;2023-06-24T00:38:48;6.47;;;5.88;;
45970;SDS011;31681;48.982;8.394;2023-06-24T00:41:14;7.28;;;6.43;;
45970;SDS011;31681;48.982;8.394;2023-06-24T00:43:41;7.43;;;5.93;;
45970;SDS011;31681;48.982;8.394;2023-06-24T00:46:06;11.07;;;6.68;;
45970;SDS011;31681;48.982;8.394;2023-06-24T00:48:34;8.18;;;5.88;;
45970;SDS011;31681;48.982;8.394;2023-06-24T00:50:59;7.72;;;6.78;;
45970;SDS011;31681;48.982;8.394;2023-06-24T00:53:25;7.38;;;6.57;;
45970;SDS011;31681;48.982;8.394;2023-06-24T00:56:01;9.45;;;6.43;;
45970;SDS011;31681;48.982;8.394;2023-06-24T00:58:29;8.68;;;6.93;;
45970;SDS011;31681;48.982;8.394;2023-06-24T01:01:10;8.88;;;6.18;;
45970;SDS011;31681;48.982;8.394;2023-06-24T01:03:36;8.52;;;6.72;;
45970;SDS011;31681;48.982;8.394;2023-06-24T01:06:02;9.13;;;6.40;;
45970;SDS011;31681;48.982;8.394;2023-06-24T01:08:28;8.90;;;6.85;;
45970;SDS011;31681;48.982;8.394;2023-06-24T01:10:53;8.13;;;6.38;;
45970;SDS011;31681;48.982;8.394;2023-06-24T01:13:19;10.10;;;6.70;;
45970;SDS011;31681;48.982;8.394;2023-06-24T01:15:45;7.95;;;6.57;;
45970;SDS011;31681;48.982;8.394;2023-06-24T01:18:12;11.75;;;6.80;;
45970;SDS011;31681;48.982;8.394;2023-06-24T01:20:48;7.30;;;6.45;;
45970;SDS011;31681;48.982;8.394;2023-06-24T01:33:37;8.02;;;6.30;;
45970;SDS011;31681;48.982;8.394;2023-06-24T01:36:05;9.80;;;6.97;;
45970;SDS011;31681;48.982;8.394;2023-06-24T01:38:39;7.30;;;6.28;;
45970;SDS011;31681;48.982;8.394;2023-06-24T01:41:07;8.30;;;6.80;;
45970;SDS011;31681;48.982;8.394;2023-06-24T01:43:33;6.88;;;6.15;;
45970;SDS011;31681;48.982;8.394;2023-06-24T01:45:59;7.18;;;6.47;;
45970;SDS011;31681;48.982;8.394;2023-06-24T01:48:28;9.35;;;7.32;;
45970;SDS011;31681;48.982;8.394;2023-06-24T01:53:22;7.40;;;6.55;;
45970;SDS011;31681;48.982;8.394;2023-06-24T01:55:48;7.18;;;6.40;;
45970;SDS011;31681;48.982;8.394;2023-06-24T01:58:16;8.45;;;6.90;;
45970;SDS011;31681;48.982;8.394;2023-06-24T02:00:44;9.73;;;6.45;;
45970;SDS011;31681;48.982;8.394;2023-06-24T02:03:10;9.35;;;7.00;;
45970;SDS011;31681;48.982;8.394;2023-06-24T02:05:36;9.43;;;6.38;;
45970;SDS011;31681;48.982;8.394;2023-06-24T02:08:06;8.32;;;6.35;;
45970;SDS011;31681;48.982;8.394;2023-06-24T02:10:33;7.43;;;6.30;;
45970;SDS011;31681;48.982;8.394;2023-06-24T02:12:58;7.03;;;6.32;;
45970;SDS011;31681;48.982;8.394;2023-06-24T02:15:24;9.05;;;6.40;;
45970;SDS011;31681;48.982;8.394;2023-06-24T02:17:50;8.75;;;6.60;;
45970;SDS011;31681;48.982;8.394;2023-06-24T02:20:18;7.53;;;6.63;;
45970;SDS011;31681;48.982;8.394;2023-06-24T02:23:07;7.13;;;6.43;;
45970;SDS011;31681;48.982;8.394;2023-06-24T02:25:33;7.10;;;5.80;;
45970;SDS011;31681;48.982;8.394;2023-06-24T02:28:06;9.38;;;6.93;;
45970;SDS011;31681;48.982;8.394;2023-06-24T02:30:37;9.35;;;6.18;;
45970;SDS011;31681;48.982;8.394;2023-06-24T02:33:03;7.60;;;6.80;;
45970;SDS011;31681;48.982;8.394;2023-06-24T02:35:28;8.70;;;6.47;;
45970;SDS011;31681;48.982;8.394;2023-06-24T02:37:54;7.10;;;6.35;;
45970;SDS011;31681;48.982;8.394;2023-06-24T02:40:19;6.95;;;5.97;;
45970;SDS011;31681;48.982;8.394;2023-06-24T02:42:47;6.95;;;6.13;;
45970;SDS011;31681;48.982;8.394;2023-06-24T02:45:13;8.32;;;6.30;;
45970;SDS011;31681;48.982;8.394;2023-06-24T02:47:41;8.85;;;6.47;;
45970;SDS011;31681;48.982;8.394;2023-06-24T02:50:08;7.45;;;6.05;;
45970;SDS011;31681;48.982;8.394;2023-06-24T02:52:34;7.55;;;5.90;;
45970;SDS011;31681;48.982;8.394;2023-06-24T02:55:02;9.23;;;6.82;;
45970;SDS011;31681;48.982;8.394;2023-06-24T02:57:36;10.60;;;6.10;;
45970;SDS011;31681;48.982;8.394;2023-06-24T03:00:20;7.00;;;6.20;;
45970;SDS011;31681;48.982;8.394;2023-06-24T03:03:17;7.38;;;6.13;;
45970;SDS011;31681;48.982;8.394;2023-06-24T03:05:50;8.48;;;7.18;;
45970;SDS011;31681;48.982;8.394;2023-06-24T03:08:18;6.75;;;6.05;;
45970;SDS011;31681;48.982;8.394;2023-06-24T03:10:46;7.55;;;6.68;;
45970;SDS011;31681;48.982;8.394;2023-06-24T03:13:22;7.68;;;6.55;;
45970;SDS011;31681;48.982;8.394;2023-06-24T03:16:11;8.32;;;6.68;;
45970;SDS011;31681;48.982;8.394;2023-06-24T03:18:44;7.80;;;6.80;;
45970;SDS011;31681;48.982;8.394;2023-06-24T03:21:09;10.25;;;6.85;;
45970;SDS011;31681;48.982;8.394;2023-06-24T03:23:35;10.27;;;6.57;;
45970;SDS011;31681;48.982;8.394;2023-06-24T03:28:30;7.97;;;6.38;;
45970;SDS011;31681;48.982;8.394;2023-06-24T03:31:09;8.07;;;6.03;;
45970;SDS011;31681;48.982;8.394;2023-06-24T03:33:34;8.48;;;6.65;;
45970;SDS011;31681;48.982;8.394;2023-06-24T03:36:01;8.48;;;6.43;;
45970;SDS011;31681;48.982;8.394;2023-06-24T03:38:29;7.20;;;5.93;;
45970;SDS011;31681;48.982;8.394;2023-06-24T03:40:56;8.13;;;6.68;;
45970;SDS011;31681;48.982;8.394;2023-06-24T03:43:35;8.38;;;6.28;;
45970;SDS011;31681;48.982;8.394;2023-06-24T03:46:00;7.40;;;5.68;;
45970;SDS011;31681;48.982;8.394;2023-06-24T03:48:26;9.23;;;6.20;;
45970;SDS011;31681;48.982;8.394;2023-06-24T03:50:52;8.55;;;6.65;;
45970;SDS011;31681;48.982;8.394;2023-06-24T03:53:17;6.97;;;6.03;;
45970;SDS011;31681;48.982;8.394;2023-06-24T03:55:55;7.80;;;6.53;;
45970;SDS011;31681;48.982;8.394;2023-06-24T03:58:30;7.70;;;6.10;;
45970;SDS011;31681;48.982;8.394;2023-06-24T04:00:56;7.05;;;6.35;;
45970;SDS011;31681;48.982;8.394;2023-06-24T04:03:24;8.40;;;6.90;;
45970;SDS011;31681;48.982;8.394;2023-06-24T04:05:55;7.88;;;6.25;;
45970;SDS011;31681;48.982;8.394;2023-06-24T04:08:38;7.57;;;6.43;;
45970;SDS011;31681;48.982;8.394;2023-06-24T04:11:08;7.82;;;6.53;;
45970;SDS011;31681;48.982;8.394;2023-06-24T04:13:40;7.60;;;6.78;;
45970;SDS011;31681;48.982;8.394;2023-06-24T04:16:10;7.50;;;6.30;;
45970;SDS011;31681;48.982;8.394;2023-06-24T04:18:54;7.10;;;6.25;;
45970;SDS011;31681;48.982;8.394;2023-06-24T04:21:20;7.65;;;6.85;;
45970;SDS011;31681;48.982;8.394;2023-06-24T04:23:53;7.30;;;6.07;;
45970;SDS011;31681;48.982;8.394;2023-06-24T04:26:26;8.02;;;6.50;;
45970;SDS011;31681;48.982;8.394;2023-06-24T04:28:51;7.68;;;6.30;;
45970;SDS011;31681;48.982;8.394;2023-06-24T04:31:24;7.10;;;6.45;;
45970;SDS011;31681;48.982;8.394;2023-06-24T04:33:50;8.30;;;6.78;;
45970;SDS011;31681;48.982;8.394;2023-06-24T04:36:16;8.20;;;6.18;;
45970;SDS011;31681;48.982;8.394;2023-06-24T04:38:44;8.50;;;6.90;;
45970;SDS011;31681;48.982;8.394;2023-06-24T04:41:19;8.75;;;7.10;;
45970;SDS011;31681;48.982;8.394;2023-06-24T04:43:47;7.25;;;6.03;;
45970;SDS011;31681;48.982;8.394;2023-06-24T04:46:13;8.32;;;6.32;;
45970;SDS011;31681;48.982;8.394;2023-06-24T04:48:38;7.43;;;6.72;;
45970;SDS011;31681;48.982;8.394;2023-06-24T04:51:04;9.48;;;6.43;;
45970;SDS011;31681;48.982;8.394;2023-06-24T04:53:29;7.10;;;6.25;;
45970;SDS011;31681;48.982;8.394;2023-06-24T04:56:02;6.13;;;5.53;;
45970;SDS011;31681;48.982;8.394;2023-06-24T04:58:41;6.82;;;5.40;;
45970;SDS011;31681;48.982;8.394;2023-06-24T05:01:11;9.35;;;6.18;;
45970;SDS011;31681;48.982;8.394;2023-06-24T05:03:42;6.63;;;5.97;;
45970;SDS011;31681;48.982;8.394;2023-06-24T05:06:07;9.65;;;6.28;;
45970;SDS011;31681;48.982;8.394;2023-06-24T05:08:33;7.05;;;6.00;;
45970;SDS011;31681;48.982;8.394;2023-06-24T05:11:09;6.28;;;5.68;;
45970;SDS011;31681;48.982;8.394;2023-06-24T05:13:34;8.48;;;5.95;;
45970;SDS011;31681;48.982;8.394;2023-06-24T05:16:01;6.50;;;5.78;;
45970;SDS011;31681;48.982;8.394;2023-06-24T05:18:27;8.38;;;5.68;;
45970;SDS011;31681;48.982;8.394;2023-06-24T05:20:52;7.78;;;5.47;;
45970;SDS011;31681;48.982;8.394;2023-06-24T05:23:18;7.53;;;5.78;;
45970;SDS011;31681;48.982;8.394;2023-06-24T05:25:43;7.72;;;5.40;;
45970;SDS011;31681;48.982;8.394;2023-06-24T05:28:24;5.80;;;5.30;;
45970;SDS011;31681;48.982;8.394;2023-06-24T05:30:58;5.75;;;5.00;;
45970;SDS011;31681;48.982;8.394;2023-06-24T05:33:29;7.10;;;5.32;;
45970;SDS011;31681;48.982;8.394;2023-06-24T05:35:54;8.90;;;5.65;;
45970;SDS011;31681;48.982;8.394;2023-06-24T05:38:27;8.07;;;5.63;;
45970;SDS011;31681;48.982;8.394;2023-06-24T05:40:59;6.15;;;5.10;;
45970;SDS011;31681;48.982;8.394;2023-06-24T05:43:32;8.95;;;5.50;;
45970;SDS011;31681;48.982;8.394;2023-06-24T05:46:05;7.10;;;5.30;;
45970;SDS011;31681;48.982;8.394;2023-06-24T05:48:38;8.55;;;5.30;;
45970;SDS011;31681;48.982;8.394;2023-06-24T05:51:06;6.55;;;5.70;;
45970;SDS011;31681;48.982;8.394;2023-06-24T05:53:31;6.60;;;5.18;;
45970;SDS011;31681;48.982;8.394;2023-06-24T05:55:56;6.07;;;5.07;;
45970;SDS011;31681;48.982;8.394;2023-06-24T05:58:22;6.30;;;5.50;;
45970;SDS011;31681;48.982;8.394;2023-06-24T06:00:52;5.15;;;4.65;;
45970;SDS011;31681;48.982;8.394;2023-06-24T06:03:22;5.65;;;5.10;;
45970;SDS011;31681;48.982;8.394;2023-06-24T06:05:50;5.25;;;4.60;;
45970;SDS011;31681;48.982;8.394;2023-06-24T06:08:15;7.00;;;5.38;;
45970;SDS011;31681;48.982;8.394;2023-06-24T06:10:40;6.35;;;5.18;;
45970;SDS011;31681;48.982;8.394;2023-06-24T06:13:11;7.10;;;5.40;;
45970;SDS011;31681;48.982;8.394;2023-06-24T06:15:39;5.22;;;4.75;;
45970;SDS011;31681;48.982;8.394;2023-06-24T06:18:04;7.03;;;5.57;;
45970;SDS011;31681;48.982;8.394;2023-06-24T06:20:32;6.78;;;4.90;;
45970;SDS011;31681;48.982;8.394;2023-06-24T06:23:05;6.03;;;5.30;;
45970;SDS011;31681;48.982;8.394;2023-06-24T06:25:39;5.85;;;4.72;;
45970;SDS011;31681;48.982;8.394;2023-06-24T06:28:04;6.82;;;4.88;;
45970;SDS011;31681;48.982;8.394;2023-06-24T06:30:41;7.57;;;5.35;;
45970;SDS011;31681;48.982;8.394;2023-06-24T06:33:09;6.78;;;4.70;;
45970;SDS011;31681;48.982;8.394;2023-06-24T06:35:36;6.45;;;4.68;;
45970;SDS011;31681;48.982;8.394;2023-06-24T06:38:02;6.68;;;4.80;;
45970;SDS011;31681;48.982;8.394;2023-06-24T06:40:27;6.25;;;5.00;;
45970;SDS011;31681;48.982;8.394;2023-06-24T06:42:53;7.97;;;4.70;;
45970;SDS011;31681;48.982;8.394;2023-06-24T06:45:19;6.18;;;4.95;;
45970;SDS011;31681;48.982;8.394;2023-06-24T06:47:44;5.68;;;4.15;;
45970;SDS011;31681;48.982;8.394;2023-06-24T06:50:09;6.70;;;4.95;;
45970;SDS011;31681;48.982;8.394;2023-06-24T06:52:35;5.72;;;4.60;;
45970;SDS011;31681;48.982;8.394;2023-06-24T06:55:00;6.43;;;4.70;;
45970;SDS011;31681;48.982;8.394;2023-06-24T06:57:26;9.20;;;4.60;;
45970;SDS011;31681;48.982;8.394;2023-06-24T06:59:51;6.85;;;4.70;;
45970;SDS011;31681;48.982;8.394;2023-06-24T07:02:17;6.97;;;4.50;;
45970;SDS011;31681;48.982;8.394;2023-06-24T07:04:42;6.32;;;4.40;;
45970;SDS011;31681;48.982;8.394;2023-06-24T07:07:08;6.18;;;4.60;;
45970;SDS011;31681;48.982;8.394;2023-06-24T07:09:33;5.32;;;4.10;;
45970;SDS011;31681;48.982;8.394;2023-06-24T07:12:02;4.88;;;4.30;;
45970;SDS011;31681;48.982;8.394;2023-06-24T07:14:27;6.45;;;4.35;;
45970;SDS011;31681;48.982;8.394;2023-06-24T07:16:55;7.53;;;4.40;;
45970;SDS011;31681;48.982;8.394;2023-06-24T07:19:20;6.88;;;4.47;;
45970;SDS011;31681;48.982;8.394;2023-06-24T07:21:45;5.78;;;4.28;;
45970;SDS011;31681;48.982;8.394;2023-06-24T07:24:11;7.65;;;4.45;;
45970;SDS011;31681;48.982;8.394;2023-06-24T07:26:36;5.80;;;4.10;;
45970;SDS011;31681;48.982;8.394;2023-06-24T07:29:01;5.93;;;3.92;;
45970;SDS011;31681;48.982;8.394;2023-06-24T07:31:30;4.32;;;3.90;;
45970;SDS011;31681;48.982;8.394;2023-06-24T07:33:55;5.35;;;4.40;;
45970;SDS011;31681;48.982;8.394;2023-06-24T07:36:21;5.35;;;4.10;;
45970;SDS011;31681;48.982;8.394;2023-06-24T07:38:51;5.18;;;4.13;;
45970;SDS011;31681;48.982;8.394;2023-06-24T07:41:16;7.63;;;4.35;;
45970;SDS011;31681;48.982;8.394;2023-06-24T07:43:42;5.00;;;4.30;;
45970;SDS011;31681;48.982;8.394;2023-06-24T07:46:07;4.65;;;4.15;;
45970;SDS011;31681;48.982;8.394;2023-06-24T07:48:40;6.28;;;4.00;;
45970;SDS011;31681;48.982;8.394;2023-06-24T07:51:05;5.85;;;3.90;;
45970;SDS011;31681;48.982;8.394;2023-06-24T07:53:30;4.85;;;4.20;;
45970;SDS011;31681;48.982;8.394;2023-06-24T07:55:58;5.07;;;4.22;;
45970;SDS011;31681;48.982;8.394;2023-06-24T07:58:23;5.30;;;4.30;;
45970;SDS011;31681;48.982;8.394;2023-06-24T08:00:56;5.63;;;4.30;;
45970;SDS011;31681;48.982;8.394;2023-06-24T08:03:21;5.22;;;3.95;;
45970;SDS011;31681;48.982;8.394;2023-06-24T08:05:48;4.18;;;3.60;;
45970;SDS011;31681;48.982;8.394;2023-06-24T08:08:15;4.82;;;4.32;;
45970;SDS011;31681;48.982;8.394;2023-06-24T08:10:40;4.85;;;3.65;;
45970;SDS011;31681;48.982;8.394;2023-06-24T08:13:05;5.45;;;3.92;;
45970;SDS011;31681;48.982;8.394;2023-06-24T08:15:31;4.43;;;3.85;;
45970;SDS011;31681;48.982;8.394;2023-06-24T08:17:56;5.22;;;3.80;;
45970;SDS011;31681;48.982;8.394;2023-06-24T08:20:31;4.63;;;4.00;;
45970;SDS011;31681;48.982;8.394;2023-06-24T08:23:08;5.00;;;3.90;;
45970;SDS011;31681;48.982;8.394;2023-06-24T08:25:42;5.68;;;4.13;;
45970;SDS011;31681;48.982;8.394;2023-06-24T08:31:36;5.07;;;3.70;;
45970;SDS011;31681;48.982;8.394;2023-06-24T08:34:02;4.18;;;3.78;;
45970;SDS011;31681;48.982;8.394;2023-06-24T08:36:28;4.90;;;4.18;;
45970;SDS011;31681;48.982;8.394;2023-06-24T08:38:54;5.00;;;4.15;;
45970;SDS011;31681;48.982;8.394;2023-06-24T08:41:20;6.28;;;4.18;;
45970;SDS011;31681;48.982;8.394;2023-06-24T08:43:45;5.65;;;4.93;;
45970;SDS011;31681;48.982;8.394;2023-06-24T08:46:11;5.55;;;4.05;;
45970;SDS011;31681;48.982;8.394;2023-06-24T08:48:38;4.45;;;3.78;;
45970;SDS011;31681;48.982;8.394;2023-06-24T08:51:07;6.15;;;3.80;;
45970;SDS011;31681;48.982;8.394;2023-06-24T08:53:35;4.70;;;4.30;;
45970;SDS011;31681;48.982;8.394;2023-06-24T08:56:03;5.80;;;3.72;;
45970;SDS011;31681;48.982;8.394;2023-06-24T08:58:29;4.10;;;3.40;;
45970;SDS011;31681;48.982;8.394;2023-06-24T09:00:54;4.75;;;3.90;;
45970;SDS011;31681;48.982;8.394;2023-06-24T09:03:21;4.75;;;3.20;;
45970;SDS011;31681;48.982;8.394;2023-06-24T09:05:49;4.90;;;3.97;;
45970;SDS011;31681;48.982;8.394;2023-06-24T09:08:14;6.07;;;3.50;;
45970;SDS011;31681;48.982;8.394;2023-06-24T09:10:41;4.18;;;3.50;;
45970;SDS011;31681;48.982;8.394;2023-06-24T09:13:06;4.50;;;3.67;;
45970;SDS011;31681;48.982;8.394;2023-06-24T09:15:32;4.20;;;3.50;;
45970;SDS011;31681;48.982;8.394;2023-06-24T09:18:06;5.13;;;4.50;;
45970;SDS011;31681;48.982;8.394;2023-06-24T09:20:31;5.07;;;3.92;;
45970;SDS011;31681;48.982;8.394;2023-06-24T09:22:58;4.75;;;3.38;;
45970;SDS011;31681;48.982;8.394;2023-06-24T09:25:23;3.65;;;3.28;;
45970;SDS011;31681;48.982;8.394;2023-06-24T09:27:54;5.50;;;4.45;;
45970;SDS011;31681;48.982;8.394;2023-06-24T09:30:24;4.10;;;3.70;;
45970;SDS011;31681;48.982;8.394;2023-06-24T09:32:50;4.70;;;3.22;;
45970;SDS011;31681;48.982;8.394;2023-06-24T09:35:25;5.22;;;4.30;;
45970;SDS011;31681;48.982;8.394;2023-06-24T09:37:57;4.65;;;3.67;;
45970;SDS011;31681;48.982;8.394;2023-06-24T09:40:24;4.75;;;3.72;;
45970;SDS011;31681;48.982;8.394;2023-06-24T09:42:56;5.50;;;3.45;;
45970;SDS011;31681;48.982;8.394;2023-06-24T09:45:28;3.90;;;3.50;;
45970;SDS011;31681;48.982;8.394;2023-06-24T09:47:54;4.65;;;3.58;;
45970;SDS011;31681;48.982;8.394;2023-06-24T09:50:20;4.38;;;3.47;;
45970;SDS011;31681;48.982;8.394;2023-06-24T09:52:46;4.28;;;3.45;;
45970;SDS011;31681;48.982;8.394;2023-06-24T09:55:13;3.67;;;3.30;;
45970;SDS011;31681;48.982;8.394;2023-06-24T09:57:39;4.05;;;3.65;;
45970;SDS011;31681;48.982;8.394;2023-06-24T10:00:06;4.40;;;3.35;;
45970;SDS011;31681;48.982;8.394;2023-06-24T10:02:31;5.93;;;3.33;;
45970;SDS011;31681;48.982;8.394;2023-06-24T10:04:57;7.47;;;3.58;;
45970;SDS011;31681;48.982;8.394;2023-06-24T10:07:24;4.43;;;3.92;;
45970;SDS011;31681;48.982;8.394;2023-06-24T10:09:52;5.10;;;4.20;;
45970;SDS011;31681;48.982;8.394;2023-06-24T10:12:17;5.22;;;3.92;;
45970;SDS011;31681;48.982;8.394;2023-06-24T10:14:43;4.95;;;3.67;;
45970;SDS011;31681;48.982;8.394;2023-06-24T10:17:09;6.97;;;3.40;;
45970;SDS011;31681;48.982;8.394;2023-06-24T10:19:38;3.65;;;3.22;;
45970;SDS011;31681;48.982;8.394;2023-06-24T10:22:07;4.50;;;3.70;;
45970;SDS011;31681;48.982;8.394;2023-06-24T10:24:33;4.25;;;3.65;;
45970;SDS011;31681;48.982;8.394;2023-06-24T10:27:09;4.80;;;3.80;;
45970;SDS011;31681;48.982;8.394;2023-06-24T10:29:38;4.43;;;3.55;;
45970;SDS011;31681;48.982;8.394;2023-06-24T10:32:04;3.80;;;3.42;;
45970;SDS011;31681;48.982;8.394;2023-06-24T10:34:40;4.53;;;3.30;;
45970;SDS011;31681;48.982;8.394;2023-06-24T10:44:59;4.95;;;3.05;;
45970;SDS011;31681;48.982;8.394;2023-06-24T10:47:25;3.20;;;2.90;;
45970;SDS011;31681;48.982;8.394;2023-06-24T10:49:51;5.13;;;3.05;;
45970;SDS011;31681;48.982;8.394;2023-06-24T10:52:19;4.18;;;3.22;;
45970;SDS011;31681;48.982;8.394;2023-06-24T10:54:48;3.72;;;3.17;;
45970;SDS011;31681;48.982;8.394;2023-06-24T10:57:14;4.05;;;3.13;;
45970;SDS011;31681;48.982;8.394;2023-06-24T11:02:05;3.83;;;3.53;;
45970;SDS011;31681;48.982;8.394;2023-06-24T11:04:33;4.38;;;2.75;;
45970;SDS011;31681;48.982;8.394;2023-06-24T11:07:04;3.85;;;3.45;;
45970;SDS011;31681;48.982;8.394;2023-06-24T11:09:29;4.40;;;2.92;;
45970;SDS011;31681;48.982;8.394;2023-06-24T11:11:54;3.00;;;2.70;;
45970;SDS011;31681;48.982;8.394;2023-06-24T11:14:20;4.80;;;3.05;;
45970;SDS011;31681;48.982;8.394;2023-06-24T11:16:45;4.50;;;3.05;;
45970;SDS011;31681;48.982;8.394;2023-06-24T11:19:11;7.80;;;3.38;;
45970;SDS011;31681;48.982;8.394;2023-06-24T11:21:39;4.45;;;3.50;;
45970;SDS011;31681;48.982;8.394;2023-06-24T11:24:04;4.07;;;3.20;;
45970;SDS011;31681;48.982;8.394;2023-06-24T11:26:30;3.80;;;3.10;;
45970;SDS011;31681;48.982;8.394;2023-06-24T11:28:56;6.13;;;3.40;;
45970;SDS011;31681;48.982;8.394;2023-06-24T11:31:27;3.72;;;2.97;;
45970;SDS011;31681;48.982;8.394;2023-06-24T11:33:53;3.22;;;2.90;;
45970;SDS011;31681;48.982;8.394;2023-06-24T11:36:18;5.20;;;3.03;;
45970;SDS011;31681;48.982;8.394;2023-06-24T11:38:47;3.42;;;2.70;;
45970;SDS011;31681;48.982;8.394;2023-06-24T11:41:13;3.20;;;2.90;;
45970;SDS011;31681;48.982;8.394;2023-06-24T11:43:45;3.90;;;3.13;;
45970;SDS011;31681;48.982;8.394;2023-06-24T11:46:10;5.03;;;3.17;;
45970;SDS011;31681;48.982;8.394;2023-06-24T11:48:45;3.15;;;2.85;;
45970;SDS011;31681;48.982;8.394;2023-06-24T11:51:13;10.60;;;3.30;;
45970;SDS011;31681;48.982;8.394;2023-06-24T11:53:45;3.95;;;3.03;;
45970;SDS011;31681;48.982;8.394;2023-06-24T11:56:11;4.05;;;2.78;;
45970;SDS011;31681;48.982;8.394;2023-06-24T11:58:36;4.28;;;3.30;;
45970;SDS011;31681;48.982;8.394;2023-06-24T12:01:02;3.58;;;3.20;;
45970;SDS011;31681;48.982;8.394;2023-06-24T12:03:28;4.60;;;2.75;;
45970;SDS011;31681;48.982;8.394;2023-06-24T12:05:54;3.40;;;3.03;;
45970;SDS011;31681;48.982;8.394;2023-06-24T12:08:19;3.20;;;2.88;;
45970;SDS011;31681;48.982;8.394;2023-06-24T12:10:44;3.90;;;2.92;;
45970;SDS011;31681;48.982;8.394;2023-06-24T12:13:12;4.13;;;3.15;;
45970;SDS011;31681;48.982;8.394;2023-06-24T12:15:38;3.30;;;2.92;;
45970;SDS011;31681;48.982;8.394;2023-06-24T12:18:03;4.78;;;3.45;;
45970;SDS011;31681;48.982;8.394;2023-06-24T12:20:30;3.90;;;3.30;;
45970;SDS011;31681;48.982;8.394;2023-06-24T12:22:56;4.07;;;3.63;;
45970;SDS011;31681;48.982;8.394;2023-06-24T12:25:21;5.28;;;3.63;;
45970;SDS011;31681;48.982;8.394;2023-06-24T12:27:47;3.47;;;3.05;;
45970;SDS011;31681;48.982;8.394;2023-06-24T12:30:14;3.63;;;3.28;;
45970;SDS011;31681;48.982;8.394;2023-06-24T12:32:41;3.15;;;2.85;;
45970;SDS011;31681;48.982;8.394;2023-06-24T12:35:07;5.72;;;3.30;;
45970;SDS011;31681;48.982;8.394;2023-06-24T12:37:34;3.45;;;2.80;;
45970;SDS011;31681;48.982;8.394;2023-06-24T12:40:05;3.13;;;2.83;;
45970;SDS011;31681;48.982;8.394;2023-06-24T12:42:33;4.32;;;3.40;;
45970;SDS011;31681;48.982;8.394;2023-06-24T12:45:01;5.32;;;3.20;;
45970;SDS011;31681;48.982;8.394;2023-06-24T12:47:26;3.83;;;2.97;;
45970;SDS011;31681;48.982;8.394;2023-06-24T12:49:54;2.92;;;2.50;;
45970;SDS011;31681;48.982;8.394;2023-06-24T12:52:19;3.92;;;3.20;;
45970;SDS011;31681;48.982;8.394;2023-06-24T12:57:45;4.07;;;3.00;;
45970;SDS011;31681;48.982;8.394;2023-06-24T13:00:11;3.53;;;3.10;;
45970;SDS011;31681;48.982;8.394;2023-06-24T13:02:37;3.40;;;3.10;;
45970;SDS011;31681;48.982;8.394;2023-06-24T13:05:03;3.30;;;3.00;;
45970;SDS011;31681;48.982;8.394;2023-06-24T13:07:29;3.38;;;3.08;;
45970;SDS011;31681;48.982;8.394;2023-06-24T13:09:54;3.55;;;3.00;;
45970;SDS011;31681;48.982;8.394;2023-06-24T13:12:20;3.83;;;3.42;;
45970;SDS011;31681;48.982;8.394;2023-06-24T13:14:47;3.03;;;2.75;;
45970;SDS011;31681;48.982;8.394;2023-06-24T13:17:13;3.42;;;3.13;;
45970;SDS011;31681;48.982;8.394;2023-06-24T13:19:38;3.97;;;3.35;;
45970;SDS011;31681;48.982;8.394;2023-06-24T13:22:03;5.53;;;3.40;;
45970;SDS011;31681;48.982;8.394;2023-06-24T13:24:34;3.22;;;2.92;;
45970;SDS011;31681;48.982;8.394;2023-06-24T13:27:01;3.75;;;3.40;;
45970;SDS011;31681;48.982;8.394;2023-06-24T13:29:27;4.03;;;3.60;;
45970;SDS011;31681;48.982;8.394;2023-06-24T13:31:52;3.65;;;3.00;;
45970;SDS011;31681;48.982;8.394;2023-06-24T13:34:18;3.47;;;3.17;;
45970;SDS011;31681;48.982;8.394;2023-06-24T13:36:44;4.82;;;3.35;;
45970;SDS011;31681;48.982;8.394;2023-06-24T13:39:09;4.05;;;3.63;;
45970;SDS011;31681;48.982;8.394;2023-06-24T13:41:38;4.43;;;3.75;;
45970;SDS011;31681;48.982;8.394;2023-06-24T13:44:04;7.82;;;3.38;;
45970;SDS011;31681;48.982;8.394;2023-06-24T13:46:38;6.88;;;3.50;;
45970;SDS011;31681;48.982;8.394;2023-06-24T13:49:03;4.45;;;3.38;;
45970;SDS011;31681;48.982;8.394;2023-06-24T13:51:28;3.35;;;2.90;;
45970;SDS011;31681;48.982;8.394;2023-06-24T13:53:54;5.13;;;3.20;;
45970;SDS011;31681;48.982;8.394;2023-06-24T13:56:20;3.38;;;3.08;;
45970;SDS011;31681;48.982;8.394;2023-06-24T13:58:46;4.20;;;3.70;;
45970;SDS011;31681;48.982;8.394;2023-06-24T14:01:12;3.97;;;3.30;;
45970;SDS011;31681;48.982;8.394;2023-06-24T14:03:40;3.95;;;3.40;;
45970;SDS011;31681;48.982;8.394;2023-06-24T14:06:07;3.85;;;3.00;;
45970;SDS011;31681;48.982;8.394;2023-06-24T14:08:33;3.83;;;3.38;;
45970;SDS011;31681;48.982;8.394;2023-06-24T14:10:59;5.95;;;3.42;;
45970;SDS011;31681;48.982;8.394;2023-06-24T14:13:25;3.88;;;3.28;;
45970;SDS011;31681;48.982;8.394;2023-06-24T14:15:51;4.75;;;3.30;;
45970;SDS011;31681;48.982;8.394;2023-06-24T14:18:17;3.92;;;3.53;;
45970;SDS011;31681;48.982;8.394;2023-06-24T14:20:42;3.53;;;3.10;;
45970;SDS011;31681;48.982;8.394;2023-06-24T14:23:07;3.50;;;3.20;;
45970;SDS011;31681;48.982;8.394;2023-06-24T14:25:35;6.07;;;3.35;;
45970;SDS011;31681;48.982;8.394;2023-06-24T14:28:03;3.17;;;2.85;;
45970;SDS011;31681;48.982;8.394;2023-06-24T14:30:28;3.95;;;3.30;;
45970;SDS011;31681;48.982;8.394;2023-06-24T14:32:53;3.45;;;3.15;;
45970;SDS011;31681;48.982;8.394;2023-06-24T14:35:19;4.43;;;3.22;;
45970;SDS011;31681;48.982;8.394;2023-06-24T14:37:44;4.90;;;3.22;;
45970;SDS011;31681;48.982;8.394;2023-06-24T14:40:10;3.78;;;3.38;;
45970;SDS011;31681;48.982;8.394;2023-06-24T14:42:35;3.38;;;3.05;;
45970;SDS011;31681;48.982;8.394;2023-06-24T14:45:01;4.07;;;3.25;;
45970;SDS011;31681;48.982;8.394;2023-06-24T14:47:26;3.35;;;3.05;;
45970;SDS011;31681;48.982;8.394;2023-06-24T14:49:51;3.50;;;3.20;;
45970;SDS011;31681;48.982;8.394;2023-06-24T14:52:17;3.20;;;2.80;;
45970;SDS011;31681;48.982;8.394;2023-06-24T14:54:42;3.63;;;3.25;;
45970;SDS011;31681;48.982;8.394;2023-06-24T14:57:07;2.65;;;2.45;;
45970;SDS011;31681;48.982;8.394;2023-06-24T14:59:33;3.97;;;2.75;;
45970;SDS011;31681;48.982;8.394;2023-06-24T15:01:58;3.72;;;3.05;;
45970;SDS011;31681;48.982;8.394;2023-06-24T15:04:23;3.35;;;2.90;;
45970;SDS011;31681;48.982;8.394;2023-06-24T15:06:49;3.53;;;2.92;;
45970;SDS011;31681;48.982;8.394;2023-06-24T15:09:14;6.07;;;3.22;;
45970;SDS011;31681;48.982;8.394;2023-06-24T15:11:40;3.33;;;2.75;;
45970;SDS011;31681;48.982;8.394;2023-06-24T15:14:05;4.28;;;3.05;;
45970;SDS011;31681;48.982;8.394;2023-06-24T15:16:30;3.22;;;2.92;;
45970;SDS011;31681;48.982;8.394;2023-06-24T15:18:56;3.88;;;2.95;;
45970;SDS011;31681;48.982;8.394;2023-06-24T15:21:21;3.25;;;2.90;;
45970;SDS011;31681;48.982;8.394;2023-06-24T15:23:49;4.65;;;3.05;;